Time;durP1;ratioP1;P1;durP2;ratioP2;P2;SDS_P1;SDS_P2;PMS_P1;PMS_P2;Temp;Humidity;BMP_temperature;BMP_pressure;BME280_temperature;BME280_humidity;BME280_pressure;Samples;Min_cycle;Max_cycle;Signal;HPM_P1;HPM_P2
2024/04/11 00:00:16;;;;;;;0.30;0.30;;;;;;;;;;5419465;26;20255;-72
2024/04/11 00:03:14;;;;;;;0.30;0.30;;;;;;;;;;5415190;26;20299;-73
2024/04/11 00:06:04;;;;;;;0.30;0.30;;;;;;;;;;5424384;26;20715;-73
2024/04/11 00:08:31;;;;;;;0.50;0.50;;;;;;;;;;5426230;26;20998;-74
2024/04/11 00:10:58;;;;;;;0.43;0.43;;;;;;;;;;5421768;26;20290;-73
2024/04/11 00:13:24;;;;;;;0.50;0.40;;;;;;;;;;5403592;26;20321;-73
2024/04/11 00:15:56;;;;;;;0.30;0.30;;;;;;;;;;5381312;26;20269;-73
2024/04/11 00:18:25;;;;;;;0.30;0.30;;;;;;;;;;5382989;26;20261;-74
2024/04/11 00:20:55;;;;;;;0.30;0.30;;;;;;;;;;5383943;26;20967;-73
2024/04/11 00:23:22;;;;;;;0.30;0.30;;;;;;;;;;5399751;26;20370;-73
2024/04/11 00:25:57;;;;;;;0.30;0.30;;;;;;;;;;5391312;26;20362;-73
2024/04/11 00:28:26;;;;;;;0.40;0.40;;;;;;;;;;5391569;26;20332;-72
2024/04/11 00:30:53;;;;;;;0.30;0.30;;;;;;;;;;5411067;26;20300;-72
2024/04/11 00:33:21;;;;;;;0.30;0.30;;;;;;;;;;5383424;26;20361;-74
2024/04/11 00:35:49;;;;;;;0.63;0.63;;;;;;;;;;5378933;26;20261;-72
2024/04/11 00:38:17;;;;;;;0.30;0.30;;;;;;;;;;5384318;26;20641;-72
2024/04/11 00:40:55;;;;;;;0.50;0.50;;;;;;;;;;5385476;26;20748;-72
2024/04/11 00:43:46;;;;;;;1.30;1.27;;;;;;;;;;5390812;26;20292;-72
2024/04/11 00:46:12;;;;;;;0.30;0.30;;;;;;;;;;5386983;26;20319;-73
2024/04/11 00:48:39;;;;;;;0.30;0.30;;;;;;;;;;5384469;26;20264;-73
2024/04/11 00:51:07;;;;;;;0.30;0.30;;;;;;;;;;5387252;26;20704;-72
2024/04/11 00:53:34;;;;;;;0.30;0.30;;;;;;;;;;5387140;26;20257;-72
2024/04/11 00:56:00;;;;;;;0.40;0.40;;;;;;;;;;5387319;26;20316;-73
2024/04/11 00:58:30;;;;;;;0.30;0.30;;;;;;;;;;5382895;26;20261;-73
2024/04/11 01:00:57;;;;;;;0.40;0.40;;;;;;;;;;5385422;26;20295;-72
2024/04/11 01:03:24;;;;;;;0.30;0.30;;;;;;;;;;5390673;26;20257;-73
2024/04/11 01:05:52;;;;;;;0.30;0.30;;;;;;;;;;5385003;26;20253;-73
2024/04/11 01:08:19;;;;;;;0.40;0.40;;;;;;;;;;5392880;26;20296;-73
2024/04/11 01:10:45;;;;;;;0.30;0.30;;;;;;;;;;5393370;26;20256;-73
2024/04/11 01:13:12;;;;;;;0.30;0.30;;;;;;;;;;5389186;26;20328;-72
2024/04/11 01:15:39;;;;;;;0.30;0.30;;;;;;;;;;5387650;26;20304;-74
2024/04/11 01:18:05;;;;;;;0.30;0.30;;;;;;;;;;5383284;26;20307;-72
2024/04/11 01:20:32;;;;;;;0.57;0.57;;;;;;;;;;5389013;26;20387;-73
2024/04/11 01:22:59;;;;;;;0.30;0.30;;;;;;;;;;5425593;26;20322;-73
2024/04/11 01:25:29;;;;;;;0.47;0.47;;;;;;;;;;5420086;26;20268;-73
2024/04/11 01:27:57;;;;;;;0.30;0.30;;;;;;;;;;5425026;26;20248;-73
2024/04/11 01:30:23;;;;;;;0.30;0.30;;;;;;;;;;5422288;26;20256;-74
2024/04/11 01:33:14;;;;;;;0.30;0.30;;;;;;;;;;5428525;26;20295;-73
2024/04/11 01:35:41;;;;;;;0.30;0.30;;;;;;;;;;5406541;26;20262;-73
2024/04/11 01:38:09;;;;;;;2.53;1.23;;;;;;;;;;5392974;26;20300;-73
2024/04/11 01:40:36;;;;;;;0.30;0.30;;;;;;;;;;5391902;26;20306;-73
2024/04/11 01:43:04;;;;;;;0.30;0.30;;;;;;;;;;5385000;26;20253;-73
2024/04/11 01:45:31;;;;;;;0.50;0.50;;;;;;;;;;5391499;26;20315;-73
2024/04/11 01:47:58;;;;;;;0.37;0.37;;;;;;;;;;5418010;26;20691;-73
2024/04/11 01:50:26;;;;;;;0.97;0.97;;;;;;;;;;5423973;26;20640;-73
2024/04/11 01:55:47;;;;;;;0.30;0.30;;;;;;;;;;5420509;26;20291;-73
2024/04/11 01:58:17;;;;;;;0.30;0.30;;;;;;;;;;5424248;26;20263;-73
2024/04/11 02:00:44;;;;;;;1.07;1.00;;;;;;;;;;5396502;26;20299;-74
2024/04/11 02:03:13;;;;;;;0.30;0.30;;;;;;;;;;5440055;26;20272;-73
2024/04/11 02:05:41;;;;;;;0.30;0.30;;;;;;;;;;5418540;26;20264;-74
2024/04/11 02:08:08;;;;;;;0.30;0.30;;;;;;;;;;5421511;26;21089;-74
2024/04/11 02:10:35;;;;;;;0.60;0.60;;;;;;;;;;5424404;26;20245;-73
2024/04/11 02:13:02;;;;;;;1.90;1.80;;;;;;;;;;5425612;26;20303;-74
2024/04/11 02:15:28;;;;;;;0.30;0.30;;;;;;;;;;5420699;26;20257;-74
2024/04/11 02:17:55;;;;;;;0.30;0.30;;;;;;;;;;5423300;26;20292;-72
2024/04/11 02:20:28;;;;;;;0.30;0.30;;;;;;;;;;5424272;26;20302;-75
2024/04/11 02:22:54;;;;;;;0.30;0.30;;;;;;;;;;5427986;26;20256;-74
2024/04/11 02:25:22;;;;;;;0.30;0.30;;;;;;;;;;5429100;26;20263;-74
2024/04/11 02:27:48;;;;;;;0.53;0.53;;;;;;;;;;5430706;26;20307;-73
2024/04/11 02:30:15;;;;;;;0.80;0.80;;;;;;;;;;5426348;26;20305;-73
2024/04/11 02:32:42;;;;;;;0.30;0.30;;;;;;;;;;5425658;26;20264;-74
2024/04/11 02:35:11;;;;;;;0.30;0.30;;;;;;;;;;5427742;26;20256;-74
2024/04/11 02:37:38;;;;;;;0.20;0.20;;;;;;;;;;5425553;26;20316;-74
2024/04/11 02:40:09;;;;;;;0.30;0.30;;;;;;;;;;5422206;26;20252;-73
2024/04/11 02:42:39;;;;;;;0.50;0.50;;;;;;;;;;5427874;26;20302;-73
2024/04/11 02:45:14;;;;;;;0.40;0.40;;;;;;;;;;5426133;26;20304;-74
2024/04/11 02:47:41;;;;;;;0.30;0.30;;;;;;;;;;5424651;26;20293;-73
2024/04/11 02:50:15;;;;;;;0.37;0.37;;;;;;;;;;5422702;26;20299;-73
2024/04/11 02:52:42;;;;;;;0.60;0.60;;;;;;;;;;5428350;26;20315;-73
2024/04/11 02:55:11;;;;;;;0.30;0.30;;;;;;;;;;5430866;26;20611;-73
2024/04/11 02:57:37;;;;;;;0.33;0.33;;;;;;;;;;5429811;26;20305;-74
2024/04/11 03:00:05;;;;;;;0.30;0.30;;;;;;;;;;5433208;26;20286;-73
2024/04/11 03:02:33;;;;;;;0.30;0.30;;;;;;;;;;5426037;26;20263;-73
2024/04/11 03:05:01;;;;;;;0.40;0.40;;;;;;;;;;5431015;26;20295;-73
2024/04/11 03:07:29;;;;;;;0.30;0.30;;;;;;;;;;5423663;26;20291;-74
2024/04/11 03:09:56;;;;;;;0.30;0.30;;;;;;;;;;5428318;26;21348;-73
2024/04/11 03:12:23;;;;;;;0.67;0.67;;;;;;;;;;5421981;26;20273;-75
2024/04/11 03:14:49;;;;;;;0.30;0.30;;;;;;;;;;5423324;26;20315;-74
2024/04/11 03:17:16;;;;;;;0.40;0.40;;;;;;;;;;5424425;26;20830;-72
2024/04/11 03:19:43;;;;;;;0.30;0.30;;;;;;;;;;5423565;26;20256;-72
2024/04/11 03:22:10;;;;;;;0.40;0.40;;;;;;;;;;5424574;26;20299;-73
2024/04/11 03:24:38;;;;;;;0.30;0.30;;;;;;;;;;5424644;26;20317;-73
2024/04/11 03:27:05;;;;;;;0.20;0.20;;;;;;;;;;5428397;26;20267;-73
2024/04/11 03:29:32;;;;;;;0.30;0.30;;;;;;;;;;5426601;26;20267;-73
2024/04/11 03:31:58;;;;;;;0.30;0.30;;;;;;;;;;5428128;26;20287;-73
2024/04/11 03:34:25;;;;;;;0.30;0.30;;;;;;;;;;5425357;26;20302;-73
2024/04/11 03:36:55;;;;;;;0.40;0.40;;;;;;;;;;5426365;26;20251;-73
2024/04/11 03:39:21;;;;;;;0.40;0.40;;;;;;;;;;5425846;26;20375;-73
2024/04/11 03:41:49;;;;;;;0.40;0.40;;;;;;;;;;5426187;26;20301;-73
2024/04/11 03:44:16;;;;;;;0.30;0.30;;;;;;;;;;5429786;26;20356;-73
2024/04/11 03:46:42;;;;;;;0.30;0.30;;;;;;;;;;5425450;26;20319;-73
2024/04/11 03:49:09;;;;;;;0.30;0.30;;;;;;;;;;5432618;26;20256;-73
2024/04/11 03:51:41;;;;;;;0.30;0.30;;;;;;;;;;5429208;26;20260;-72
2024/04/11 03:54:09;;;;;;;0.30;0.30;;;;;;;;;;5428633;26;20295;-73
2024/04/11 03:56:37;;;;;;;0.30;0.30;;;;;;;;;;5429880;26;20268;-73
2024/04/11 03:59:03;;;;;;;0.40;0.40;;;;;;;;;;5432481;26;20354;-73
2024/04/11 04:01:30;;;;;;;0.30;0.30;;;;;;;;;;5428347;26;20314;-72
2024/04/11 04:04:02;;;;;;;0.80;0.60;;;;;;;;;;5420546;26;20295;-73
2024/04/11 04:06:33;;;;;;;0.23;0.23;;;;;;;;;;5416916;26;20255;-73
2024/04/11 04:09:07;;;;;;;0.30;0.30;;;;;;;;;;5424613;26;20263;-73
2024/04/11 04:11:36;;;;;;;0.30;0.30;;;;;;;;;;5427858;26;20275;-73
2024/04/11 04:14:09;;;;;;;0.37;0.37;;;;;;;;;;5432356;26;20323;-74
2024/04/11 04:16:38;;;;;;;0.30;0.30;;;;;;;;;;5424973;26;21115;-75
2024/04/11 04:19:07;;;;;;;0.40;0.40;;;;;;;;;;5426618;26;20618;-73
2024/04/11 04:21:35;;;;;;;0.30;0.30;;;;;;;;;;5429486;26;20632;-73
2024/04/11 04:24:05;;;;;;;0.20;0.20;;;;;;;;;;5430195;26;20264;-73
2024/04/11 04:26:34;;;;;;;0.30;0.30;;;;;;;;;;5430660;26;20782;-73
2024/04/11 04:29:00;;;;;;;0.20;0.20;;;;;;;;;;5433330;26;20327;-73
2024/04/11 04:31:29;;;;;;;0.30;0.30;;;;;;;;;;5429562;26;20253;-73
2024/04/11 04:33:58;;;;;;;0.57;0.57;;;;;;;;;;5430483;26;20310;-73
2024/04/11 04:36:27;;;;;;;0.30;0.30;;;;;;;;;;5432383;26;20251;-73
2024/04/11 04:38:58;;;;;;;0.30;0.30;;;;;;;;;;5430748;26;20282;-73
2024/04/11 04:41:27;;;;;;;0.30;0.30;;;;;;;;;;5428423;26;20256;-73
2024/04/11 04:43:57;;;;;;;0.40;0.40;;;;;;;;;;5425235;26;20251;-73
2024/04/11 04:46:26;;;;;;;0.30;0.30;;;;;;;;;;5424826;26;20259;-73
2024/04/11 04:48:52;;;;;;;0.30;0.30;;;;;;;;;;5432477;26;20730;-73
2024/04/11 04:51:21;;;;;;;0.20;0.20;;;;;;;;;;5425841;26;20264;-73
2024/04/11 04:53:52;;;;;;;0.30;0.30;;;;;;;;;;5426137;26;20272;-73
2024/04/11 04:56:22;;;;;;;0.30;0.30;;;;;;;;;;5425039;26;20260;-73
2024/04/11 04:58:51;;;;;;;0.93;0.93;;;;;;;;;;5427097;26;20265;-73
2024/04/11 05:01:20;;;;;;;0.30;0.30;;;;;;;;;;5426508;26;20339;-74
2024/04/11 05:03:48;;;;;;;0.30;0.30;;;;;;;;;;5431285;26;20299;-73
2024/04/11 05:06:16;;;;;;;0.50;0.50;;;;;;;;;;5391859;26;20261;-74
2024/04/11 05:08:46;;;;;;;0.30;0.30;;;;;;;;;;5386559;26;20258;-73
2024/04/11 05:11:13;;;;;;;1.30;0.80;;;;;;;;;;5386516;26;20261;-73
2024/04/11 05:13:45;;;;;;;0.97;0.97;;;;;;;;;;5389629;26;20258;-73
2024/04/11 05:16:20;;;;;;;0.73;0.73;;;;;;;;;;5388970;26;20321;-73
2024/04/11 05:18:53;;;;;;;0.50;0.50;;;;;;;;;;5428518;26;20428;-74
2024/04/11 05:21:24;;;;;;;0.87;0.60;;;;;;;;;;5423035;26;20319;-73
2024/04/11 05:23:54;;;;;;;0.67;0.67;;;;;;;;;;5429950;26;20403;-73
2024/04/11 05:26:23;;;;;;;0.30;0.30;;;;;;;;;;5422792;26;20619;-72
2024/04/11 05:28:52;;;;;;;0.30;0.30;;;;;;;;;;5435003;26;20253;-73
2024/04/11 05:31:25;;;;;;;0.20;0.20;;;;;;;;;;5426064;26;20256;-73
2024/04/11 05:33:53;;;;;;;0.30;0.30;;;;;;;;;;5432749;26;20256;-73
2024/04/11 05:36:28;;;;;;;0.30;0.30;;;;;;;;;;5429343;26;20287;-74
2024/04/11 05:38:56;;;;;;;0.20;0.20;;;;;;;;;;5430452;26;20789;-73
2024/04/11 05:41:25;;;;;;;0.63;0.63;;;;;;;;;;5408408;26;20330;-73
2024/04/11 05:43:54;;;;;;;0.27;0.27;;;;;;;;;;5410226;26;20263;-73
2024/04/11 05:46:22;;;;;;;0.30;0.30;;;;;;;;;;5425410;26;20772;-76
2024/04/11 05:48:50;;;;;;;0.30;0.30;;;;;;;;;;5423260;26;20302;-73
2024/04/11 05:51:18;;;;;;;0.30;0.30;;;;;;;;;;5426941;26;20313;-73
2024/04/11 05:53:45;;;;;;;0.53;0.53;;;;;;;;;;5427760;26;20298;-73
2024/04/11 05:56:13;;;;;;;0.30;0.30;;;;;;;;;;5431455;26;20726;-73
2024/04/11 05:58:42;;;;;;;4.33;0.77;;;;;;;;;;5430866;26;20989;-73
2024/04/11 06:01:10;;;;;;;0.30;0.30;;;;;;;;;;5427505;26;20316;-73
2024/04/11 06:03:40;;;;;;;0.50;0.50;;;;;;;;;;5431594;26;20256;-73
2024/04/11 06:06:10;;;;;;;0.40;0.40;;;;;;;;;;5430302;26;20665;-73
2024/04/11 06:08:37;;;;;;;0.37;0.37;;;;;;;;;;5431141;26;20269;-73
2024/04/11 06:11:10;;;;;;;0.63;0.63;;;;;;;;;;5432063;26;20364;-73
2024/04/11 06:13:37;;;;;;;0.40;0.40;;;;;;;;;;5431779;26;20256;-73
2024/04/11 06:16:05;;;;;;;0.30;0.30;;;;;;;;;;5429357;26;20733;-73
2024/04/11 06:18:37;;;;;;;0.40;0.40;;;;;;;;;;5421127;26;20291;-73
2024/04/11 06:21:05;;;;;;;0.70;0.70;;;;;;;;;;5425358;26;20349;-73
2024/04/11 06:23:32;;;;;;;0.30;0.30;;;;;;;;;;5427831;26;20649;-73
2024/04/11 06:25:59;;;;;;;0.40;0.40;;;;;;;;;;5424705;26;20259;-72
2024/04/11 06:28:26;;;;;;;0.40;0.40;;;;;;;;;;5429162;26;20260;-73
2024/04/11 06:30:53;;;;;;;0.30;0.30;;;;;;;;;;5416828;26;20749;-73
2024/04/11 06:33:24;;;;;;;0.30;0.30;;;;;;;;;;5389604;26;20309;-73
2024/04/11 06:35:51;;;;;;;0.30;0.30;;;;;;;;;;5413689;26;20255;-73
2024/04/11 06:38:23;;;;;;;0.43;0.43;;;;;;;;;;5424804;26;20295;-73
2024/04/11 06:40:52;;;;;;;0.30;0.30;;;;;;;;;;5427023;26;20267;-73
2024/04/11 06:43:21;;;;;;;0.30;0.30;;;;;;;;;;5429926;26;20255;-73
2024/04/11 06:45:50;;;;;;;0.50;0.50;;;;;;;;;;5427117;26;20296;-73
2024/04/11 06:48:18;;;;;;;0.30;0.30;;;;;;;;;;5431573;26;20659;-74
2024/04/11 06:50:46;;;;;;;0.73;0.73;;;;;;;;;;5426802;26;20271;-74
2024/04/11 06:53:13;;;;;;;0.50;0.50;;;;;;;;;;5429084;26;20256;-72
2024/04/11 06:55:45;;;;;;;0.30;0.30;;;;;;;;;;5423612;26;20265;-73
2024/04/11 06:58:20;;;;;;;0.30;0.30;;;;;;;;;;5424293;26;20259;-72
2024/04/11 07:01:00;;;;;;;0.30;0.30;;;;;;;;;;5424947;26;20302;-71
2024/04/11 07:03:28;;;;;;;0.30;0.30;;;;;;;;;;5426397;26;20255;-74
2024/04/11 07:06:00;;;;;;;1.80;1.13;;;;;;;;;;5420510;26;20294;-72
2024/04/11 07:08:31;;;;;;;0.50;0.50;;;;;;;;;;5423359;26;21486;-73
2024/04/11 07:11:12;;;;;;;0.40;0.40;;;;;;;;;;5419711;26;20307;-72
2024/04/11 07:14:10;;;;;;;0.30;0.30;;;;;;;;;;5422541;26;20365;-72
2024/04/11 07:16:44;;;;;;;0.30;0.30;;;;;;;;;;5424989;26;20643;-72
2024/04/11 07:19:14;;;;;;;0.20;0.20;;;;;;;;;;5426226;26;20729;-73
2024/04/11 07:21:43;;;;;;;2.10;1.47;;;;;;;;;;5423380;26;20369;-72
2024/04/11 07:24:10;;;;;;;0.30;0.30;;;;;;;;;;5424993;26;20256;-73
2024/04/11 07:27:00;;;;;;;0.53;0.53;;;;;;;;;;5425580;26;20765;-73
2024/04/11 07:29:29;;;;;;;0.30;0.30;;;;;;;;;;5422028;26;20372;-72
2024/04/11 07:31:56;;;;;;;0.30;0.30;;;;;;;;;;5425393;26;20757;-73
2024/04/11 07:34:23;;;;;;;0.30;0.30;;;;;;;;;;5426291;26;20652;-73
2024/04/11 07:36:51;;;;;;;0.30;0.30;;;;;;;;;;5428764;26;20744;-73
2024/04/11 07:39:20;;;;;;;0.40;0.40;;;;;;;;;;5431611;26;20259;-72
2024/04/11 07:41:47;;;;;;;0.30;0.30;;;;;;;;;;5428107;26;20286;-73
2024/04/11 07:44:22;;;;;;;0.37;0.37;;;;;;;;;;5429487;26;20350;-73
2024/04/11 07:46:53;;;;;;;0.30;0.30;;;;;;;;;;5423016;26;20730;-73
2024/04/11 07:49:40;;;;;;;0.20;0.20;;;;;;;;;;5423868;26;20248;-73
2024/04/11 07:52:10;;;;;;;0.30;0.30;;;;;;;;;;5421142;26;20273;-74
2024/04/11 07:54:38;;;;;;;0.30;0.30;;;;;;;;;;5423198;26;20268;-73
2024/04/11 07:57:13;;;;;;;0.40;0.40;;;;;;;;;;5428951;26;20259;-72
2024/04/11 08:00:18;;;;;;;1.07;0.73;;;;;;;;;;5428698;26;20260;-74
2024/04/11 08:02:50;;;;;;;0.30;0.30;;;;;;;;;;5421898;26;20605;-73
2024/04/11 08:05:24;;;;;;;0.53;0.53;;;;;;;;;;5425930;26;20268;-72
2024/04/11 08:07:54;;;;;;;0.20;0.20;;;;;;;;;;5452885;26;20315;-73
2024/04/11 08:10:20;;;;;;;0.30;0.30;;;;;;;;;;5427084;26;20308;-74
2024/04/11 08:12:47;;;;;;;0.30;0.30;;;;;;;;;;5427881;26;20260;-71
2024/04/11 08:15:14;;;;;;;0.30;0.30;;;;;;;;;;5427964;26;20262;-72
2024/04/11 08:17:42;;;;;;;1.23;1.23;;;;;;;;;;5427230;26;20289;-72
2024/04/11 08:20:14;;;;;;;0.30;0.30;;;;;;;;;;5432318;26;20263;-72
2024/04/11 08:22:41;;;;;;;0.30;0.30;;;;;;;;;;5420859;26;20691;-73
2024/04/11 08:25:11;;;;;;;0.30;0.30;;;;;;;;;;5422886;26;20279;-73
2024/04/11 08:27:43;;;;;;;0.30;0.30;;;;;;;;;;5422847;26;20268;-73
2024/04/11 08:30:11;;;;;;;0.40;0.40;;;;;;;;;;5422042;26;20504;-72
2024/04/11 08:32:45;;;;;;;0.30;0.30;;;;;;;;;;5427419;26;20412;-74
2024/04/11 08:35:17;;;;;;;0.40;0.40;;;;;;;;;;5422082;26;20252;-74
2024/04/11 08:37:46;;;;;;;0.43;0.43;;;;;;;;;;5422913;26;20255;-72
2024/04/11 08:40:13;;;;;;;0.30;0.30;;;;;;;;;;5417153;26;20255;-73
2024/04/11 08:42:43;;;;;;;0.40;0.40;;;;;;;;;;5420270;26;20264;-73
2024/04/11 08:45:12;;;;;;;0.30;0.30;;;;;;;;;;5426714;26;20866;-73
2024/04/11 08:47:39;;;;;;;0.30;0.30;;;;;;;;;;5424646;26;20263;-73
2024/04/11 08:50:07;;;;;;;0.30;0.30;;;;;;;;;;5422417;26;20297;-72
2024/04/11 08:52:36;;;;;;;0.30;0.30;;;;;;;;;;5424679;26;20299;-73
2024/04/11 08:55:03;;;;;;;0.30;0.30;;;;;;;;;;5428787;26;20279;-73
2024/04/11 08:57:30;;;;;;;0.30;0.30;;;;;;;;;;5431350;26;20662;-73
2024/04/11 09:00:24;;;;;;;0.30;0.30;;;;;;;;;;5430757;26;20291;-75
2024/04/11 09:02:52;;;;;;;0.30;0.30;;;;;;;;;;5430571;26;20312;-72
2024/04/11 09:05:21;;;;;;;0.30;0.30;;;;;;;;;;5434568;26;20319;-72
2024/04/11 09:07:50;;;;;;;0.30;0.30;;;;;;;;;;5431366;26;20299;-73
2024/04/11 09:10:19;;;;;;;0.30;0.30;;;;;;;;;;5431593;26;20263;-73
2024/04/11 09:12:47;;;;;;;0.30;0.30;;;;;;;;;;5434496;26;20311;-72
2024/04/11 09:15:18;;;;;;;0.60;0.60;;;;;;;;;;5434586;26;20296;-72
2024/04/11 09:17:45;;;;;;;0.50;0.50;;;;;;;;;;5428851;26;20269;-73
2024/04/11 09:20:13;;;;;;;0.20;0.20;;;;;;;;;;5432617;26;20264;-72
2024/04/11 09:22:51;;;;;;;0.30;0.30;;;;;;;;;;5427431;26;20312;-73
2024/04/11 09:25:25;;;;;;;1.13;0.90;;;;;;;;;;5431604;26;20261;-73
2024/04/11 09:27:58;;;;;;;0.40;0.40;;;;;;;;;;5434539;26;20312;-72
2024/04/11 09:30:34;;;;;;;0.20;0.20;;;;;;;;;;5433192;26;20260;-73
2024/04/11 09:33:05;;;;;;;0.30;0.30;;;;;;;;;;5432842;26;20624;-73
2024/04/11 09:35:40;;;;;;;0.20;0.20;;;;;;;;;;5430775;26;20261;-72
2024/04/11 09:38:12;;;;;;;0.20;0.20;;;;;;;;;;5428741;26;20255;-73
2024/04/11 09:40:53;;;;;;;0.30;0.30;;;;;;;;;;5431442;26;20271;-72
2024/04/11 09:43:22;;;;;;;0.30;0.30;;;;;;;;;;5433074;26;20962;-72
2024/04/11 09:45:56;;;;;;;0.30;0.30;;;;;;;;;;5431806;26;20260;-73
2024/04/11 09:48:25;;;;;;;0.30;0.30;;;;;;;;;;5427769;26;20841;-73
2024/04/11 09:50:52;;;;;;;0.93;0.93;;;;;;;;;;5425979;26;20261;-72
2024/04/11 09:53:29;;;;;;;0.30;0.30;;;;;;;;;;5423928;26;20300;-73
2024/04/11 09:55:57;;;;;;;0.20;0.20;;;;;;;;;;5427130;26;21031;-73
2024/04/11 09:58:48;;;;;;;0.30;0.30;;;;;;;;;;5430012;26;20968;-76
2024/04/11 10:01:30;;;;;;;0.30;0.30;;;;;;;;;;5432602;26;22069;-73
2024/04/11 10:04:35;;;;;;;0.20;0.20;;;;;;;;;;5432447;26;20299;-73
2024/04/11 10:07:09;;;;;;;0.30;0.30;;;;;;;;;;5432369;26;20255;-74
2024/04/11 10:09:46;;;;;;;0.30;0.30;;;;;;;;;;5427582;26;20298;-74
2024/04/11 10:12:19;;;;;;;0.30;0.30;;;;;;;;;;5430772;26;20316;-75
2024/04/11 10:14:49;;;;;;;0.30;0.30;;;;;;;;;;5431512;26;20870;-74
2024/04/11 10:17:17;;;;;;;0.20;0.20;;;;;;;;;;5430925;26;20254;-74
2024/04/11 10:19:43;;;;;;;0.40;0.40;;;;;;;;;;5429601;26;20293;-73
2024/04/11 10:22:15;;;;;;;0.33;0.33;;;;;;;;;;5432758;26;20265;-75
2024/04/11 10:24:49;;;;;;;0.30;0.30;;;;;;;;;;5428012;26;20268;-73
2024/04/11 10:27:19;;;;;;;0.30;0.30;;;;;;;;;;5427382;26;20254;-73
2024/04/11 10:29:47;;;;;;;0.28;0.28;;;;;;;;;;5444416;26;20291;-73
2024/04/11 10:32:18;;;;;;;0.30;0.30;;;;;;;;;;5429460;26;20256;-75
2024/04/11 10:34:48;;;;;;;0.30;0.30;;;;;;;;;;5426440;26;20352;-75
2024/04/11 10:37:23;;;;;;;0.40;0.40;;;;;;;;;;5430193;26;20290;-73
2024/04/11 10:39:54;;;;;;;0.20;0.20;;;;;;;;;;5454403;26;20266;-73
2024/04/11 10:42:43;;;;;;;0.20;0.20;;;;;;;;;;5428003;26;20304;-74
2024/04/11 10:45:17;;;;;;;0.40;0.40;;;;;;;;;;5430129;26;20319;-75
2024/04/11 10:47:45;;;;;;;0.30;0.30;;;;;;;;;;5430413;26;20264;-74
2024/04/11 10:50:14;;;;;;;0.30;0.30;;;;;;;;;;5431452;26;20842;-75
2024/04/11 10:52:46;;;;;;;0.63;0.63;;;;;;;;;;5429048;26;20298;-73
2024/04/11 10:55:28;;;;;;;1.85;0.93;;;;;;;;;;5428364;26;20349;-73
2024/04/11 10:58:09;;;;;;;0.30;0.30;;;;;;;;;;5431719;26;20263;-74
2024/04/11 11:03:46;;;;;;;0.30;0.30;;;;;;;;;;5428593;26;20256;-74
2024/04/11 11:06:25;;;;;;;0.40;0.40;;;;;;;;;;5433407;26;20270;-73
2024/04/11 11:08:59;;;;;;;0.63;0.63;;;;;;;;;;5431156;26;20290;-73
2024/04/11 11:11:30;;;;;;;0.30;0.30;;;;;;;;;;5426133;26;20275;-75
2024/04/11 11:14:00;;;;;;;0.30;0.30;;;;;;;;;;5432215;26;20293;-74
2024/04/11 11:16:32;;;;;;;0.30;0.30;;;;;;;;;;5426830;26;20327;-74
2024/04/11 11:18:59;;;;;;;0.20;0.20;;;;;;;;;;5427222;26;20304;-73
2024/04/11 11:21:32;;;;;;;0.40;0.40;;;;;;;;;;5427303;26;20302;-74
2024/04/11 11:24:07;;;;;;;0.30;0.30;;;;;;;;;;5426794;26;20315;-74
2024/04/11 11:26:36;;;;;;;0.30;0.30;;;;;;;;;;5428554;26;20295;-75
2024/04/11 11:29:05;;;;;;;0.30;0.30;;;;;;;;;;5430779;26;20292;-74
2024/04/11 11:31:36;;;;;;;1.48;1.38;;;;;;;;;;5429525;26;20303;-74
2024/04/11 11:34:09;;;;;;;0.35;0.35;;;;;;;;;;5428633;26;20289;-74
2024/04/11 11:36:38;;;;;;;0.30;0.30;;;;;;;;;;5454964;26;20754;-75
2024/04/11 11:39:04;;;;;;;0.30;0.30;;;;;;;;;;5428139;26;20298;-73
2024/04/11 11:41:37;;;;;;;0.40;0.40;;;;;;;;;;5430199;26;20738;-75
2024/04/11 11:44:17;;;;;;;1.00;1.00;;;;;;;;;;5430093;26;20363;-75
2024/04/11 11:46:44;;;;;;;0.30;0.30;;;;;;;;;;5428272;26;20255;-74
2024/04/11 11:49:12;;;;;;;0.47;0.47;;;;;;;;;;5429745;26;20339;-74
2024/04/11 11:51:39;;;;;;;0.40;0.40;;;;;;;;;;5431439;26;20256;-75
2024/04/11 11:54:14;;;;;;;0.30;0.30;;;;;;;;;;5431531;26;20315;-74
2024/04/11 11:56:43;;;;;;;0.35;0.35;;;;;;;;;;5429224;26;20297;-75
2024/04/11 11:59:10;;;;;;;0.40;0.40;;;;;;;;;;5424422;26;20287;-74
2024/04/11 12:01:43;;;;;;;0.47;0.47;;;;;;;;;;5426597;26;20259;-74
2024/04/11 12:04:12;;;;;;;0.50;0.50;;;;;;;;;;5426316;26;20290;-73
2024/04/11 12:06:44;;;;;;;0.30;0.30;;;;;;;;;;5428629;26;20282;-73
2024/04/11 12:09:11;;;;;;;0.82;0.82;;;;;;;;;;5429386;26;20255;-74
2024/04/11 12:12:07;;;;;;;0.30;0.30;;;;;;;;;;5427462;26;20316;-73
2024/04/11 12:14:34;;;;;;;0.30;0.30;;;;;;;;;;5428529;26;20252;-74
2024/04/11 12:17:04;;;;;;;1.05;1.05;;;;;;;;;;5428900;26;20702;-74
2024/04/11 12:19:31;;;;;;;0.50;0.50;;;;;;;;;;5428744;26;20289;-74
2024/04/11 12:22:16;;;;;;;0.40;0.40;;;;;;;;;;5428915;26;20313;-74
2024/04/11 12:24:46;;;;;;;0.38;0.38;;;;;;;;;;5431429;26;20290;-73
2024/04/11 12:27:13;;;;;;;0.40;0.40;;;;;;;;;;5430191;26;20302;-74
2024/04/11 12:29:42;;;;;;;0.95;0.70;;;;;;;;;;5442658;26;20352;-75
2024/04/11 12:32:12;;;;;;;0.30;0.30;;;;;;;;;;5436778;26;20302;-74
2024/04/11 12:34:42;;;;;;;0.50;0.50;;;;;;;;;;5426692;26;20255;-74
2024/04/11 12:37:17;;;;;;;0.30;0.30;;;;;;;;;;5392757;26;20809;-71
2024/04/11 12:39:53;;;;;;;0.50;0.50;;;;;;;;;;5394444;26;20248;-71
2024/04/11 12:42:29;;;;;;;0.40;0.40;;;;;;;;;;5396806;26;20857;-73
2024/04/11 12:45:00;;;;;;;0.40;0.40;;;;;;;;;;5397837;26;20328;-72
2024/04/11 12:47:39;;;;;;;0.30;0.30;;;;;;;;;;5396425;26;20314;-72
2024/04/11 12:50:14;;;;;;;0.60;0.60;;;;;;;;;;5390451;26;20283;-72
2024/04/11 12:52:44;;;;;;;0.50;0.50;;;;;;;;;;5393571;26;20347;-72
2024/04/11 12:55:11;;;;;;;0.60;0.60;;;;;;;;;;5395695;26;20256;-72
2024/04/11 12:57:38;;;;;;;0.40;0.40;;;;;;;;;;5394645;26;20269;-73
2024/04/11 13:00:18;;;;;;;0.40;0.40;;;;;;;;;;5393000;26;20270;-72
2024/04/11 13:02:48;;;;;;;0.30;0.30;;;;;;;;;;5390891;26;20311;-73
2024/04/11 13:05:15;;;;;;;0.40;0.40;;;;;;;;;;5388474;26;20279;-71
2024/04/11 13:07:42;;;;;;;0.30;0.30;;;;;;;;;;5391949;26;20590;-72
2024/04/11 13:10:09;;;;;;;1.10;0.95;;;;;;;;;;5394304;26;20264;-72
2024/04/11 13:12:36;;;;;;;0.40;0.40;;;;;;;;;;5394198;26;20258;-72
2024/04/11 13:15:09;;;;;;;0.35;0.35;;;;;;;;;;5395097;26;20327;-72
2024/04/11 13:17:41;;;;;;;0.40;0.40;;;;;;;;;;5386476;26;20733;-72
2024/04/11 13:20:15;;;;;;;0.40;0.40;;;;;;;;;;5395869;26;20276;-72
2024/04/11 13:22:48;;;;;;;0.40;0.40;;;;;;;;;;5392880;26;20294;-73
2024/04/11 13:25:18;;;;;;;0.40;0.40;;;;;;;;;;5391938;26;20312;-72
2024/04/11 13:27:45;;;;;;;0.50;0.50;;;;;;;;;;5393200;26;20682;-72
2024/04/11 13:30:12;;;;;;;0.40;0.40;;;;;;;;;;5393210;26;20293;-72
2024/04/11 13:32:48;;;;;;;0.75;0.75;;;;;;;;;;5388207;26;20315;-73
2024/04/11 13:35:36;;;;;;;0.30;0.30;;;;;;;;;;5386395;26;20791;-72
2024/04/11 13:38:37;;;;;;;0.35;0.35;;;;;;;;;;5393698;26;20801;-72
2024/04/11 13:41:45;;;;;;;0.40;0.40;;;;;;;;;;5433270;26;20259;-73
2024/04/11 13:44:05;;;;;;;0.35;0.35;;;;;;;;;;5432645;26;20295;-73
2024/04/11 13:46:34;;;;;;;0.40;0.40;;;;;;;;;;5441856;26;20267;-73
2024/04/11 13:49:29;;;;;;;0.30;0.30;;;;;;;;;;5434231;26;20302;-72
2024/04/11 13:52:18;;;;;;;0.30;0.30;;;;;;;;;;5431116;26;21095;-72
2024/04/11 13:54:45;;;;;;;0.85;0.85;;;;;;;;;;5428667;26;20264;-72
2024/04/11 13:57:20;;;;;;;0.73;0.73;;;;;;;;;;5431174;26;20327;-73
2024/04/11 13:59:54;;;;;;;0.50;0.50;;;;;;;;;;5429252;26;20267;-72
2024/04/11 14:05:10;;;;;;;0.40;0.40;;;;;;;;;;5432903;26;20259;-72
2024/04/11 14:07:39;;;;;;;0.40;0.40;;;;;;;;;;5422953;26;20302;-72
2024/04/11 14:10:06;;;;;;;0.38;0.38;;;;;;;;;;5429860;26;20307;-73
2024/04/11 14:12:37;;;;;;;0.40;0.40;;;;;;;;;;5388790;26;20410;-72
2024/04/11 14:15:05;;;;;;;0.60;0.60;;;;;;;;;;5383487;26;20658;-72
2024/04/11 14:17:32;;;;;;;0.40;0.40;;;;;;;;;;5384246;26;20303;-72
2024/04/11 14:22:49;;;;;;;0.50;0.50;;;;;;;;;;5387395;26;20305;-72
2024/04/11 14:25:29;;;;;;;0.40;0.40;;;;;;;;;;5386428;26;20769;-72
2024/04/11 14:28:00;;;;;;;0.30;0.30;;;;;;;;;;5381152;26;20766;-72
2024/04/11 14:30:33;;;;;;;0.40;0.40;;;;;;;;;;5384102;26;20250;-73
2024/04/11 14:33:09;;;;;;;0.30;0.30;;;;;;;;;;5386977;26;20312;-72
2024/04/11 14:38:48;;;;;;;0.40;0.40;;;;;;;;;;5392157;26;20258;-71
2024/04/11 14:41:16;;;;;;;0.30;0.30;;;;;;;;;;5386096;26;20677;-71
2024/04/11 14:43:48;;;;;;;0.30;0.30;;;;;;;;;;5377001;26;20302;-72
2024/04/11 14:46:24;;;;;;;0.43;0.43;;;;;;;;;;5376902;26;20260;-72
2024/04/11 14:48:56;;;;;;;0.40;0.40;;;;;;;;;;5415161;26;20256;-72
2024/04/11 14:51:26;;;;;;;0.70;0.65;;;;;;;;;;5419282;26;20356;-72
2024/04/11 14:53:53;;;;;;;0.45;0.45;;;;;;;;;;5422865;26;22533;-72
2024/04/11 14:59:18;;;;;;;1.15;1.05;;;;;;;;;;5388329;26;20353;-73
2024/04/11 15:01:52;;;;;;;0.50;0.50;;;;;;;;;;5430030;26;20257;-73
2024/04/11 15:04:20;;;;;;;0.43;0.43;;;;;;;;;;5436262;26;20276;-72
2024/04/11 15:06:51;;;;;;;0.68;0.68;;;;;;;;;;5428091;26;20303;-72
2024/04/11 15:09:26;;;;;;;0.30;0.30;;;;;;;;;;5424853;26;20652;-72
2024/04/11 15:11:54;;;;;;;0.40;0.40;;;;;;;;;;5422190;26;20301;-72
2024/04/11 15:14:23;;;;;;;0.50;0.50;;;;;;;;;;5422383;26;20307;-72
2024/04/11 15:19:43;;;;;;;0.40;0.40;;;;;;;;;;5417827;26;20256;-72
2024/04/11 15:22:13;;;;;;;0.60;0.60;;;;;;;;;;5416101;26;20279;-72
2024/04/11 15:24:46;;;;;;;0.50;0.50;;;;;;;;;;5416894;26;20256;-72